Sea Blackhead, Ireland
Current Conditions -  °F | °C
As of 7:00 PM on Monday 20 Oct 2014 (Local Time) from EIKN Reporting Station
Broken Clouds Broken Clouds  
Wind Chill: 54°   Ceiling: 900
Heat Index: 54°   Visibility: 6mi
Dew Point: 52°   Wind: 21mph
Humidity: 94%   Direction: 210°SSW
Pressure: 29.56"   Gusts: NA
Location:  53.5°N, 10.33°W
Report Text: EIKN 201800Z 21018KT 170V240 9999 BKN009 BKN029 12/11 Q1001 NOSIG
Loading
Personal Weather Stations






























Interactive Weather Map
Tropical Storm Tracking
New forecast layout! Learn more

10-Day Weather Forecast

Advertisements
Track Severe Weather on mobile